Accueil
METAR-TAF:

METAR-TAF

Aéroports :

Aéroport de Lydd

Lydd, Angleterre

latitude: 50-57N, longitude: 000-56E, altitude: 3 m

Observation

Le bulletin a été fait il y a 26 minutes, à 19:20 UTC
Vent 2 kt de ouest/nord-ouest
Température 0°C
Humidité 100%
Pression 1040 hPa
Visibilité: 6000 m

METAR: EGMD 211920Z AUTO 29002KT 6000 FEW008/// M00/M00 Q1040

Heure: 19:46 (19:46 UTC)

Prévision

Le bulletin a été fait il y a 1 heure et 16 minutes, à 18:30 UTC
Prévision valable du 21 à 18 UTC au 22 à 03 UTC
Vent 3 kt de nord-ouest
Visibilité: 0300 m
Ciel couvert à une hauteur inférieure à 100 ft
brouillard, brouillard givrant
Temporairement
du 21 à 18 UTC au 22 à 03 UTC
Visibilité: 5000 m
brume

TAF: EGMD 211830Z 2118/2203 32003KT 0300 FG FZFG OVC000 TEMPO 2118/2203 5000 BR NSC

Observations et prévisions météorologiques de plus de 4000 aéroports (messages METAR et TAF).

Les stations disponibles sont représentées par des disques jaunes et rouges sur la carte.

Passer la souris dessus pour voir le nom de la station.

Cliquer dessus pour voir les observations et prévisions météorologiques.

Pour changer de carte: cliquez sur les boutons verts avec une croix noire pour zoomer, sur le bouton vert avec un tiret pour effectuer un zoom arrière, ou sur les flèches vertes pour les cartes adjacentes.


METAR-TAF: